Thunder radar more information blitzortung!


Löydät sääaseman tiedot myös:

European Weather Network

Finland Weather Exchange

Weather Underground

AWEKAS



Weather Underground säähistoriasivu

Päivittäin yhteenveto Tou 2, 2017 Yksiköt:  Englantilaiset    Metriset   Molemmat
« Edellinen Päivä
Seuraava Päivä »
Päivittäin Viikoittain Kuukausittain Vuosittain Mukautettu
  Korkea: Matala: Keskiarvo:
Lämpötila: TemperatureC °F -0.3 °F 6.1 °F
Kastepiste: DewpointC °F -2.2 °F -0.6 °F
Kosteus: Humidity % 43 % 63 %
Tuulen nopeus: WindSpeedKMH mph 0.0 mph 3.6 mph
Tuulenpuuska: WindSpeedGustKMH mph - -
Tuuli:- - WNW
Ilmanpaine: PressurehPa in 1024.6 in -
Sade: 0.0 in    
Historical Graphs
 
 
Taulukkotiedot Tou 2, 2017
Aika Lämpötila Kastepiste Ilmanpaine Tuuli Tuulen nopeus Tuulenpuuska Kosteus Sademäärä (tunneittain)
TemperatureC °F DewpointC °F PressurehPa in Calm     Humidity % HourlyPrecipMM in
00:00 2.9 °F -1.2 °F 1024.6 in SSW 3.2 mph 14.5 mph 74 % 0.0 in
00:15 2.9 °F -1.2 °F 1024.6 in SW 1.6 mph 8.0 mph 74 % 0.0 in
00:30 3.0 °F -1.0 °F 1024.6 in SSW 3.2 mph 11.3 mph 75 % 0.0 in
00:45 2.8 °F -1.0 °F 1024.6 in SW 4.8 mph 11.3 mph 76 % 0.0 in
01:00 2.7 °F -1.0 °F 1024.9 in SSW 4.8 mph 11.3 mph 77 % 0.0 in
01:15 2.6 °F -1.1 °F 1024.9 in SW 3.2 mph 12.9 mph 77 % 0.0 in
01:30 2.5 °F -0.9 °F 1024.9 in SW 3.2 mph 6.4 mph 78 % 0.0 in
01:45 2.3 °F -0.9 °F 1024.9 in SSW 4.8 mph 11.3 mph 79 % 0.0 in
02:00 2.2 °F -1.1 °F 1024.9 in SSW 3.2 mph 8.0 mph 79 % 0.0 in
02:15 1.9 °F -1.2 °F 1024.9 in Calm   3.2 mph 80 % 0.0 in
02:30 1.3 °F -1.7 °F 1024.9 in Calm     80 % 0.0 in
02:45 0.9 °F -1.6 °F 1024.9 in Calm   6.4 mph 83 % 0.0 in
03:00 1.3 °F -1.1 °F 1024.9 in SW 3.2 mph 6.4 mph 84 % 0.0 in
03:15 1.3 °F -1.1 °F 1024.9 in Calm   3.2 mph 84 % 0.0 in
03:30 1.3 °F -1.1 °F 1024.9 in Calm   4.8 mph 84 % 0.0 in
03:45 1.2 °F -1.0 °F 1024.9 in Calm   1.6 mph 85 % 0.0 in
04:00 0.8 °F -1.6 °F 1024.9 in Calm     84 % 0.0 in
04:15 0.1 °F -2.2 °F 1024.9 in Calm     85 % 0.0 in
04:30 -0.3 °F -2.0 °F 1024.9 in Calm     88 % 0.0 in
04:45 -0.2 °F -1.8 °F 1024.9 in Calm   1.6 mph 89 % 0.0 in
05:00 -0.2 °F -1.8 °F 1024.9 in Calm     89 % 0.0 in
05:15 -0.1 °F -1.7 °F 1024.9 in Calm     89 % 0.0 in
05:30 0.1 °F -1.5 °F 1024.9 in Calm     89 % 0.0 in
05:45 0.2 °F -1.4 °F 1024.9 in Calm     89 % 0.0 in
06:00 0.5 °F -1.3 °F 1024.9 in Calm     88 % 0.0 in
06:15 0.9 °F -1.1 °F 1024.9 in Calm   4.8 mph 86 % 0.0 in
06:30 1.4 °F -1.0 °F 1024.9 in Calm   6.4 mph 84 % 0.0 in
06:45 2.2 °F -0.8 °F 1024.9 in NW 1.6 mph 11.3 mph 81 % 0.0 in
07:00 2.7 °F -0.7 °F 1024.9 in WNW 3.2 mph 9.7 mph 78 % 0.0 in
07:15 3.2 °F -0.6 °F 1024.9 in WNW 4.8 mph 14.5 mph 76 % 0.0 in
07:30 3.8 °F -0.6 °F 1024.9 in NW 6.4 mph 12.9 mph 73 % 0.0 in
07:45 4.1 °F -0.5 °F 1025.3 in NW 4.8 mph 12.9 mph 72 % 0.0 in
08:00 4.4 °F -0.4 °F 1024.9 in WNW 4.8 mph 14.5 mph 71 % 0.0 in
08:15 4.7 °F -0.1 °F 1024.9 in WNW 3.2 mph 11.3 mph 71 % 0.0 in
08:30 4.9 °F -0.3 °F 1024.9 in NW 6.4 mph 17.7 mph 69 % 0.0 in
08:45 5.3 °F 0.1 °F 1024.9 in WNW 3.2 mph 11.3 mph 69 % 0.0 in
09:00 5.8 °F 0.3 °F 1024.9 in WNW 3.2 mph 12.9 mph 68 % 0.0 in
09:15 6.2 °F -0.1 °F 1024.9 in NW 4.8 mph 11.3 mph 64 % 0.0 in
09:30 6.7 °F 0.5 °F 1024.9 in NW 4.8 mph 12.9 mph 65 % 0.0 in
09:45 6.7 °F 0.2 °F 1024.9 in NW 6.4 mph 17.7 mph 63 % 0.0 in
10:00 7.3 °F 0.5 °F 1024.9 in West 4.8 mph 16.1 mph 62 % 0.0 in
10:15 7.7 °F 0.4 °F 1024.9 in WNW 4.8 mph 14.5 mph 60 % 0.0 in
10:30 7.7 °F 0.9 °F 1024.9 in WNW 8.0 mph 20.9 mph 62 % 0.0 in
10:45 8.3 °F 1.0 °F 1024.9 in West 3.2 mph 11.3 mph 60 % 0.0 in
11:00 8.8 °F 1.0 °F 1024.9 in WSW 4.8 mph 11.3 mph 58 % 0.0 in
11:15 8.9 °F 0.4 °F 1024.9 in WNW 6.4 mph 12.9 mph 55 % 0.0 in
11:30 9.1 °F 0.5 °F 1024.9 in NW 6.4 mph 16.1 mph 55 % 0.0 in
11:45 9.2 °F 0.3 °F 1024.9 in NW 6.4 mph 14.5 mph 54 % 0.0 in
12:00 9.0 °F 0.4 °F 1024.9 in NW 6.4 mph 16.1 mph 55 % 0.0 in
12:15 9.4 °F -0.5 °F 1024.9 in NW 6.4 mph 17.7 mph 50 % 0.0 in
12:30 9.7 °F -1.1 °F 1025.3 in NNW 8.0 mph 17.7 mph 47 % 0.0 in
12:45 9.7 °F -0.3 °F 1024.9 in NW 8.0 mph 19.3 mph 50 % 0.0 in
13:15 9.8 °F -0.7 °F 1025.3 in NW 8.0 mph 22.5 mph 48 % 0.0 in
13:30 10.0 °F -1.4 °F 1025.3 in NW 8.0 mph 19.3 mph 45 % 0.0 in
13:45 10.1 °F -0.2 °F 1025.3 in NW 6.4 mph 19.3 mph 49 % 0.0 in
14:00 10.6 °F 0.0 °F 1025.6 in NW 6.4 mph 16.1 mph 48 % 0.0 in
14:15 10.8 °F -1.0 °F 1025.6 in WNW 8.0 mph 22.5 mph 44 % 0.0 in
14:30 11.1 °F -0.4 °F 1025.6 in NW 8.0 mph 27.4 mph 45 % 0.0 in
14:45 10.1 °F -1.3 °F 1025.6 in NW 9.7 mph 20.9 mph 45 % 0.0 in
15:00 10.8 °F 0.5 °F 1025.6 in WNW 4.8 mph 16.1 mph 49 % 0.0 in
15:15 10.5 °F -0.1 °F 1025.6 in North 3.2 mph 8.0 mph 48 % 0.0 in
15:30 11.2 °F 0.3 °F 1025.6 in NNW 6.4 mph 14.5 mph 47 % 0.0 in
15:45 11.2 °F -0.6 °F 1025.6 in NNW 6.4 mph 12.9 mph 44 % 0.0 in
16:00 10.8 °F -0.6 °F 1025.6 in NW 9.7 mph 20.9 mph 45 % 0.0 in
16:15 10.9 °F -1.2 °F 1025.6 in NW 8.0 mph 20.9 mph 43 % 0.0 in
16:30 10.8 °F -1.0 °F 1025.6 in NW 9.7 mph 20.9 mph 44 % 0.0 in
16:45 10.9 °F 0.3 °F 1026.0 in NNW 3.2 mph 11.3 mph 48 % 0.0 in
17:00 10.2 °F 0.2 °F 1026.0 in North 3.2 mph 8.0 mph 50 % 0.0 in
17:15 9.9 °F -0.6 °F 1026.3 in North 3.2 mph 12.9 mph 48 % 0.0 in
17:30 10.0 °F -0.2 °F 1026.3 in NW 3.2 mph 9.7 mph 49 % 0.0 in
18:00 9.7 °F -1.1 °F 1026.3 in NNW 4.8 mph 11.3 mph 47 % 0.0 in
18:15 9.7 °F -0.5 °F 1026.3 in NNW 3.2 mph 12.9 mph 49 % 0.0 in
18:30 9.6 °F -0.6 °F 1026.6 in NNW 4.8 mph 12.9 mph 49 % 0.0 in
18:45 9.5 °F -0.1 °F 1026.6 in NW 3.2 mph 9.7 mph 51 % 0.0 in
19:00 9.4 °F -0.3 °F 1026.6 in NW 4.8 mph 11.3 mph 51 % 0.0 in
19:15 9.4 °F -0.7 °F 1026.6 in NW 3.2 mph 12.9 mph 49 % 0.0 in
19:30 9.3 °F -0.4 °F 1026.6 in NW 1.6 mph 8.0 mph 51 % 0.0 in
19:45 9.2 °F 0.1 °F 1026.6 in NW 3.2 mph 11.3 mph 53 % 0.0 in
20:00 8.9 °F -0.4 °F 1027.0 in NW 1.6 mph 8.0 mph 52 % 0.0 in
20:15 8.7 °F -0.4 °F 1027.0 in NW 1.6 mph 6.4 mph 53 % 0.0 in
20:30 8.3 °F 0.0 °F 1027.0 in NW 1.6 mph 6.4 mph 56 % 0.0 in
20:45 8.0 °F -0.3 °F 1027.0 in NW 1.6 mph 6.4 mph 56 % 0.0 in
21:00 7.8 °F -0.2 °F 1027.3 in NW 3.2 mph 8.0 mph 57 % 0.0 in
21:15 7.7 °F -0.3 °F 1027.3 in NW 3.2 mph 6.4 mph 57 % 0.0 in
21:30 7.4 °F -0.3 °F 1027.3 in Calm   4.8 mph 58 % 0.0 in
21:45 7.2 °F -0.3 °F 1027.7 in NW 1.6 mph 6.4 mph 59 % 0.0 in
22:00 6.8 °F -0.7 °F 1027.7 in NW 1.6 mph 6.4 mph 59 % 0.0 in
22:15 6.2 °F -0.8 °F 1028.0 in Calm   1.6 mph 61 % 0.0 in
22:30 5.7 °F -0.6 °F 1028.0 in NW 1.6 mph 4.8 mph 64 % 0.0 in
22:45 5.5 °F -0.8 °F 1028.0 in NW 3.2 mph 6.4 mph 64 % 0.0 in
23:00 5.4 °F -0.7 °F 1028.0 in NW 3.2 mph 6.4 mph 65 % 0.0 in
23:15 5.2 °F -0.8 °F 1028.3 in NW 3.2 mph 6.4 mph 65 % 0.0 in
23:30 4.8 °F -1.2 °F 1028.7 in NW 1.6 mph 6.4 mph 65 % 0.0 in
23:45 4.6 °F -1.3 °F 1028.7 in NW 4.8 mph 8.0 mph 66 % 0.0 in
Esan sääasema
Terveisin Weather Underground - 2.75 mb

Alkuperäinen skripti  Jim McMurry - jmcmurry@mwt.net Sovitettu myös templatelle  Wim van der Kuil - Leuven-Template.eu

Laitteet joita käytämme:

Sääasema
Davis VP2

Sääasemaohjelma
Cumulus

Sääaseman tietokone
Asus EeePC

Palveluntarjoaja
Suncomet

Davis VP2

Cumulus

Asus EeePC

Suncomet